Time;durP1;ratioP1;P1;durP2;ratioP2;P2;SDS_P1;SDS_P2;PMS_P1;PMS_P2;Temp;Humidity;BMP_temperature;BMP_pressure;BME280_temperature;BME280_humidity;BME280_pressure;Samples;Min_cycle;Max_cycle;Signal;HPM_P1;HPM_P2
2023/04/05 00:02:12;;;;;;;53.80;37.80;;;;;;;-4.93;69.38;98376.06;109616;1288;22147;-90
2023/04/05 00:04:50;;;;;;;50.60;39.80;;;;;;;-4.87;69.42;98372.84;109745;1288;22221;-91
2023/04/05 00:07:20;;;;;;;53.90;41.20;;;;;;;-4.85;69.39;98371.45;109611;1288;22259;-89
2023/04/05 00:09:48;;;;;;;48.50;40.40;;;;;;;-4.88;69.29;98367.73;109736;1288;22271;-91
2023/04/05 00:12:16;;;;;;;47.70;39.90;;;;;;;-4.89;69.40;98369.23;109735;1288;22201;-90
2023/04/05 00:14:44;;;;;;;61.80;48.10;;;;;;;-4.90;69.17;98367.07;109710;1288;22202;-89
2023/04/05 00:17:12;;;;;;;53.50;44.90;;;;;;;-4.93;69.35;98364.71;109552;1288;204465;-89
2023/04/05 00:19:42;;;;;;;64.50;47.10;;;;;;;-4.98;69.13;98356.21;109704;1288;22234;-88
2023/04/05 00:22:12;;;;;;;62.00;48.10;;;;;;;-5.03;69.16;98355.02;109701;1283;22195;-87
2023/04/05 00:24:42;;;;;;;60.20;51.20;;;;;;;-5.09;68.99;98354.56;109717;1288;22665;-87
2023/04/05 00:27:10;;;;;;;64.00;47.60;;;;;;;-5.14;68.90;98353.45;109694;1288;22202;-88
2023/04/05 00:29:38;;;;;;;59.60;48.70;;;;;;;-5.19;68.87;98352.60;109675;1288;22093;-89
2023/04/05 00:32:06;;;;;;;61.50;47.40;;;;;;;-5.20;69.31;98350.17;109575;1288;22279;-92
2023/04/05 00:34:34;;;;;;;80.30;47.20;;;;;;;-5.22;69.27;98348.23;109752;1288;22258;-91
2023/04/05 00:37:02;;;;;;;64.60;47.70;;;;;;;-5.20;69.28;98348.70;109757;1288;22215;-92
2023/04/05 00:39:30;;;;;;;57.30;48.20;;;;;;;-5.15;69.45;98347.74;109759;1288;22212;-89
2023/04/05 00:42:02;;;;;;;61.30;49.10;;;;;;;-5.14;69.51;98347.84;109650;1288;23011;-91
2023/04/05 00:44:33;;;;;;;58.00;45.90;;;;;;;-5.21;69.63;98341.86;109778;1288;22208;-92
2023/04/05 00:47:06;;;;;;;58.00;47.50;;;;;;;-5.35;69.85;98343.27;109764;1288;23155;-92
2023/04/05 00:49:35;;;;;;;54.50;46.70;;;;;;;-5.48;70.15;98342.15;109747;1285;22210;-84
2023/04/05 00:52:03;;;;;;;51.00;44.90;;;;;;;-5.61;70.49;98335.98;109644;1288;22115;-93
2023/04/05 00:54:31;;;;;;;52.70;45.30;;;;;;;-5.69;70.27;98338.67;109795;1288;22263;-92
2023/04/05 00:56:59;;;;;;;51.30;42.40;;;;;;;-5.73;70.06;98339.35;109680;1288;22319;-90
2023/04/05 00:59:27;;;;;;;55.70;42.80;;;;;;;-5.73;71.51;98335.52;109847;1288;23057;-93
2023/04/05 01:02:12;;;;;;;46.40;39.60;;;;;;;-5.72;73.10;98335.89;109844;1288;22234;-91
2023/04/05 01:04:48;;;;;;;48.80;43.30;;;;;;;-5.78;72.61;98336.59;109857;1289;23337;-91
2023/04/05 01:07:34;;;;;;;50.10;44.00;;;;;;;-5.85;73.06;98332.71;109800;1288;22192;-92
2023/04/05 01:10:04;;;;;;;51.70;46.20;;;;;;;-5.94;73.23;98329.52;109836;1288;22239;-90
2023/04/05 01:12:33;;;;;;;52.00;45.70;;;;;;;-5.99;72.63;98327.44;109649;1289;22234;-91
2023/04/05 01:15:04;;;;;;;46.60;40.50;;;;;;;-5.98;72.13;98331.16;109663;1288;22309;-93
2023/04/05 01:17:37;;;;;;;49.10;42.00;;;;;;;-6.00;72.70;98330.16;109737;1288;22414;-90
2023/04/05 01:20:12;;;;;;;41.60;37.20;;;;;;;-5.96;74.06;98331.89;109689;1289;22234;-89
2023/04/05 01:22:55;;;;;;;42.30;37.70;;;;;;;-5.99;74.80;98330.38;109681;1286;22270;-89
2023/04/05 01:25:45;;;;;;;46.90;41.80;;;;;;;-6.08;73.87;98327.46;109715;1288;22229;-89
2023/04/05 01:28:31;;;;;;;48.50;43.10;;;;;;;-6.12;73.64;98324.23;109743;1288;22200;-90
2023/04/05 01:31:05;;;;;;;49.40;44.10;;;;;;;-6.16;73.11;98322.61;109750;1288;22264;-87
2023/04/05 01:33:59;;;;;;;45.60;40.70;;;;;;;-6.19;73.12;98323.34;109736;1288;22279;-90
2023/04/05 01:36:55;;;;;;;50.00;43.30;;;;;;;-6.21;72.70;98317.41;109417;1288;22216;-88
2023/04/05 01:39:25;;;;;;;47.30;41.10;;;;;;;-6.15;72.52;98318.50;109666;1288;22293;-90
2023/04/05 01:42:00;;;;;;;42.90;38.10;;;;;;;-6.12;73.39;98317.73;109714;1288;22226;-91
2023/04/05 01:44:29;;;;;;;45.10;40.10;;;;;;;-6.10;73.58;98319.77;109690;1288;22137;-91
2023/04/05 01:46:57;;;;;;;46.60;41.70;;;;;;;-6.08;74.52;98317.10;109714;1288;22224;-89
2023/04/05 01:49:25;;;;;;;41.40;36.90;;;;;;;-6.10;74.83;98319.42;109699;1288;22383;-89
2023/04/05 01:51:53;;;;;;;42.30;37.90;;;;;;;-6.15;75.05;98313.63;109581;1288;22296;-92
2023/04/05 01:54:21;;;;;;;43.60;38.70;;;;;;;-6.22;75.62;98316.84;109704;1285;22383;-91
2023/04/05 01:56:49;;;;;;;40.60;33.60;;;;;;;-6.29;75.15;98318.59;109756;1289;22085;-89
2023/04/05 01:59:18;;;;;;;35.10;30.00;;;;;;;-6.29;75.32;98321.31;109614;1288;22208;-91
2023/04/05 02:01:46;;;;;;;35.80;31.30;;;;;;;-6.26;75.72;98320.30;109791;1288;22127;-90
2023/04/05 02:04:14;;;;;;;37.60;33.10;;;;;;;-6.28;77.22;98315.67;109846;1288;22172;-89
2023/04/05 02:06:42;;;;;;;38.10;32.30;;;;;;;-6.32;76.24;98315.92;109856;1288;22120;-90
2023/04/05 02:09:11;;;;;;;41.60;35.70;;;;;;;-6.34;76.28;98314.89;109859;1288;22960;-90
2023/04/05 02:11:39;;;;;;;43.50;38.90;;;;;;;-6.33;75.86;98309.63;109853;1289;22132;-92
2023/04/05 02:14:08;;;;;;;44.80;39.40;;;;;;;-6.29;75.33;98308.83;109873;1288;22204;-87
2023/04/05 02:16:36;;;;;;;44.80;36.40;;;;;;;-6.27;76.43;98306.45;109871;1288;22225;-91
2023/04/05 02:19:04;;;;;;;36.20;32.40;;;;;;;-6.27;76.93;98309.92;109684;1289;22116;-92
2023/04/05 02:21:32;;;;;;;42.50;33.10;;;;;;;-6.30;77.95;98306.35;109812;1289;22191;-93
2023/04/05 02:24:02;;;;;;;37.70;33.70;;;;;;;-6.32;77.56;98304.79;109739;1288;23248;-89
2023/04/05 02:26:30;;;;;;;34.80;31.00;;;;;;;-6.28;77.33;98304.70;109905;1288;22186;-88
2023/04/05 02:28:58;;;;;;;37.40;33.40;;;;;;;-6.26;76.68;98299.88;109888;1289;22199;-93
2023/04/05 02:31:26;;;;;;;39.70;35.40;;;;;;;-6.22;76.19;98298.73;109938;1286;21949;-91
2023/04/05 02:33:54;;;;;;;39.90;35.60;;;;;;;-6.22;75.94;98297.42;109862;1288;22204;-92
2023/04/05 02:36:23;;;;;;;32.80;27.90;;;;;;;-6.19;75.69;98294.04;109888;1288;22142;-91
2023/04/05 02:38:51;;;;;;;33.70;29.90;;;;;;;-6.13;75.41;98295.40;109822;1289;22211;-87
2023/04/05 02:41:20;;;;;;;42.40;37.40;;;;;;;-6.06;75.35;98291.84;109854;1288;22157;-92
2023/04/05 02:43:49;;;;;;;47.60;42.30;;;;;;;-5.96;75.54;98291.71;109849;1288;22221;-91
2023/04/05 02:46:17;;;;;;;52.80;43.60;;;;;;;-5.86;75.52;98289.33;109809;1288;22284;-88
2023/04/05 02:48:46;;;;;;;48.70;40.90;;;;;;;-5.80;75.33;98286.45;109620;1289;23053;-88
2023/04/05 02:51:14;;;;;;;44.70;39.90;;;;;;;-5.73;75.41;98285.94;109758;1288;22181;-90
2023/04/05 02:53:43;;;;;;;47.70;40.00;;;;;;;-5.69;75.24;98283.44;109761;1288;22235;-88
2023/04/05 02:56:13;;;;;;;50.80;41.90;;;;;;;-5.70;75.56;98281.92;109877;1288;22239;-88
2023/04/05 02:58:44;;;;;;;46.70;38.70;;;;;;;-5.83;76.23;98278.48;109753;1288;22227;-92
2023/04/05 03:01:13;;;;;;;52.40;41.10;;;;;;;-5.92;75.63;98279.53;109773;1288;22404;-92
2023/04/05 03:03:42;;;;;;;46.70;40.50;;;;;;;-5.87;75.37;98277.23;109627;1288;22112;-92
2023/04/05 03:06:10;;;;;;;47.10;35.90;;;;;;;-5.88;77.04;98282.58;109601;1289;22289;-87
2023/04/05 03:08:46;;;;;;;46.40;41.00;;;;;;;-6.08;78.69;98286.31;109659;1288;22185;-89
2023/04/05 03:11:16;;;;;;;52.20;44.30;;;;;;;-6.27;78.32;98282.19;109785;1288;22976;-91
2023/04/05 03:13:47;;;;;;;58.60;48.60;;;;;;;-6.29;77.59;98278.70;109805;1288;22181;-90
2023/04/05 03:16:28;;;;;;;59.10;48.30;;;;;;;-6.19;77.48;98275.07;109769;1288;22381;-92
2023/04/05 03:18:57;;;;;;;48.80;41.30;;;;;;;-6.09;77.51;98275.40;109663;1289;22257;-91
2023/04/05 03:21:28;;;;;;;49.10;41.00;;;;;;;-5.97;77.09;98277.36;109756;1289;22303;-89
2023/04/05 03:24:03;;;;;;;48.70;39.80;;;;;;;-5.84;76.67;98270.37;109707;1288;22934;-89
2023/04/05 03:26:37;;;;;;;48.80;38.70;;;;;;;-5.71;76.54;98270.04;109684;1289;22258;-90
2023/04/05 03:29:05;;;;;;;55.00;45.20;;;;;;;-5.61;76.41;98271.96;109840;1283;22147;-86
2023/04/05 03:31:36;;;;;;;43.30;34.80;;;;;;;-5.58;77.40;98270.90;109667;1288;22981;-86
2023/04/05 03:34:06;;;;;;;40.80;35.00;;;;;;;-5.69;77.34;98275.39;109508;1288;23036;-86
2023/04/05 03:36:42;;;;;;;42.20;37.70;;;;;;;-5.74;77.79;98277.52;109600;1288;22176;-88
2023/04/05 03:39:19;;;;;;;63.50;53.90;;;;;;;-5.83;78.35;98278.91;109657;1289;22366;-87
2023/04/05 03:41:53;;;;;;;53.40;47.40;;;;;;;-5.87;78.15;98277.33;109660;1286;22278;-88
2023/04/05 03:44:21;;;;;;;48.30;40.70;;;;;;;-5.85;77.58;98276.38;109724;1289;22196;-87
2023/04/05 03:46:49;;;;;;;65.10;52.30;;;;;;;-5.76;77.43;98279.71;109625;1288;22135;-87
2023/04/05 03:49:18;;;;;;;65.50;53.30;;;;;;;-5.67;77.38;98274.45;109719;1289;22206;-88
2023/04/05 03:51:46;;;;;;;75.00;56.50;;;;;;;-5.56;77.43;98273.02;109714;1288;22198;-88
2023/04/05 03:54:15;;;;;;;60.10;52.10;;;;;;;-5.44;77.48;98274.20;109710;1286;22333;-88
2023/04/05 03:56:43;;;;;;;94.60;62.80;;;;;;;-5.36;77.45;98273.40;109708;1288;22939;-87
2023/04/05 03:59:14;;;;;;;77.60;59.50;;;;;;;-5.35;77.42;98272.30;109656;1289;22885;-87
2023/04/05 04:01:43;;;;;;;66.20;59.00;;;;;;;-5.32;77.37;98273.30;109569;1288;22214;-87
2023/04/05 04:04:12;;;;;;;78.30;60.70;;;;;;;-5.28;77.34;98274.48;109742;1288;22242;-84
2023/04/05 04:06:44;;;;;;;81.20;57.90;;;;;;;-5.24;77.71;98273.37;109856;1288;22154;-85
2023/04/05 04:09:13;;;;;;;65.00;51.00;;;;;;;-5.18;77.81;98270.20;109736;1289;22659;-86
2023/04/05 04:11:41;;;;;;;53.10;45.10;;;;;;;-5.09;78.24;98268.17;109792;1289;22792;-86
2023/04/05 04:14:14;;;;;;;51.90;46.20;;;;;;;-5.06;79.16;98270.20;109688;1289;22197;-89
2023/04/05 04:17:03;;;;;;;54.80;48.90;;;;;;;-5.00;78.52;98269.91;109656;1288;22182;-89
2023/04/05 04:19:43;;;;;;;62.80;54.90;;;;;;;-4.90;78.27;98272.33;109687;1288;22741;-87
2023/04/05 04:22:37;;;;;;;83.50;65.40;;;;;;;-4.83;78.55;98277.27;109295;1288;22204;-87
2023/04/05 04:25:29;;;;;;;55.50;49.60;;;;;;;-4.90;79.33;98276.30;109310;1288;22329;-88
2023/04/05 04:28:20;;;;;;;50.00;43.20;;;;;;;-4.98;79.76;98282.65;109709;1288;22900;-88
2023/04/05 04:31:03;;;;;;;51.80;44.50;;;;;;;-5.00;80.40;98286.31;109634;1288;22112;-87
2023/04/05 04:33:52;;;;;;;49.60;44.20;;;;;;;-4.98;80.77;98281.20;109330;1280;22282;-89
2023/04/05 04:36:43;;;;;;;49.10;43.80;;;;;;;-4.97;80.54;98281.33;109712;1289;22246;-87
2023/04/05 04:39:26;;;;;;;59.60;50.10;;;;;;;-4.92;80.06;98282.02;109629;1288;22177;-84
2023/04/05 04:42:47;;;;;;;63.40;56.60;;;;;;;-4.78;80.09;98282.17;109698;1288;22385;-87
2023/04/05 04:45:37;;;;;;;74.10;61.40;;;;;;;-4.59;80.01;98282.66;109517;1289;22208;-87
2023/04/05 04:48:32;;;;;;;67.00;56.60;;;;;;;-4.45;79.65;98283.20;109553;1267;23941;-92
2023/04/05 04:51:39;;;;;;;64.50;52.00;;;;;;;-4.33;79.02;98280.81;109763;1267;22231;-88
2023/04/05 04:57:14;;;;;;;59.30;50.10;;;;;;;-4.10;78.95;98288.06;109797;1290;22904;-92
2023/04/05 04:59:42;;;;;;;62.60;52.50;;;;;;;-3.98;79.02;98288.35;109764;1290;22164;-91
2023/04/05 05:02:16;;;;;;;59.00;52.20;;;;;;;-3.86;78.89;98283.27;109834;1263;23799;31
2023/04/05 05:04:50;;;;;;;65.00;55.20;;;;;;;-3.75;79.04;98280.91;96581;1267;22576;-87
2023/04/05 05:07:19;;;;;;;62.10;51.10;;;;;;;-3.62;79.05;98282.65;109857;1264;22276;-87
2023/04/05 05:09:53;;;;;;;61.90;51.00;;;;;;;-3.53;78.83;98282.17;108934;1265;22702;-88
2023/04/05 05:12:21;;;;;;;64.00;53.20;;;;;;;-3.43;79.03;98283.52;107712;1264;22438;-88
2023/04/05 05:14:55;;;;;;;71.30;55.00;;;;;;;-3.34;78.99;98281.96;109841;1264;22716;31
2023/04/05 05:17:24;;;;;;;65.70;52.80;;;;;;;-3.27;79.01;98285.98;109733;1264;22190;-93
2023/04/05 05:19:52;;;;;;;75.90;53.40;;;;;;;-3.22;79.03;98286.19;109730;1261;22235;-90
2023/04/05 05:22:23;;;;;;;111.80;62.20;;;;;;;-3.17;79.27;98289.41;109822;1264;23143;-87
2023/04/05 05:24:51;;;;;;;83.10;57.70;;;;;;;-3.08;78.85;98291.20;109855;1288;22178;-90
2023/04/05 05:27:20;;;;;;;111.00;66.20;;;;;;;-2.95;79.08;98291.14;109904;1288;22208;-91
2023/04/05 05:29:49;;;;;;;109.30;67.40;;;;;;;-2.85;79.09;98291.21;109935;1284;22223;-90
2023/04/05 05:32:17;;;;;;;106.20;64.30;;;;;;;-2.75;79.06;98289.36;109948;1288;22237;-91
2023/04/05 05:34:44;;;;;;;91.40;65.50;;;;;;;-2.67;78.80;98292.56;109914;1288;21959;-91
2023/04/05 05:37:13;;;;;;;100.70;74.30;;;;;;;-2.65;78.58;98293.23;109839;1288;22209;-91
2023/04/05 05:39:41;;;;;;;117.50;74.80;;;;;;;-2.64;78.35;98295.70;109939;1288;22922;-92
2023/04/05 05:42:10;;;;;;;113.50;77.60;;;;;;;-2.64;78.30;98296.85;109784;1288;22225;-92
2023/04/05 05:44:38;;;;;;;123.90;77.40;;;;;;;-2.61;78.61;98292.67;109767;1288;22357;-91
2023/04/05 05:47:05;;;;;;;101.30;74.70;;;;;;;-2.58;78.47;98293.94;109828;1288;22166;-87
2023/04/05 05:49:33;;;;;;;89.90;73.60;;;;;;;-2.56;78.22;98295.59;109877;1288;22233;-92
2023/04/05 05:52:03;;;;;;;90.30;71.00;;;;;;;-2.55;78.08;98296.93;109862;1288;22285;-90
2023/04/05 05:54:31;;;;;;;93.60;72.80;;;;;;;-2.55;77.98;98297.38;109782;1288;22192;-89
2023/04/05 05:56:59;;;;;;;102.00;73.60;;;;;;;-2.50;78.21;98299.72;109812;1288;22218;-92
2023/04/05 05:59:27;;;;;;;95.50;76.20;;;;;;;-2.42;78.18;98299.42;109781;1288;23340;-91
2023/04/05 06:02:04;;;;;;;105.30;73.00;;;;;;;-2.38;78.03;98296.05;109871;1261;23031;31
2023/04/05 06:04:33;;;;;;;81.80;68.00;;;;;;;-2.36;77.76;98292.88;109572;1265;22223;-89
2023/04/05 06:07:01;;;;;;;77.70;69.10;;;;;;;-2.35;77.74;98296.86;109820;1264;22440;-90
2023/04/05 06:09:35;;;;;;;71.20;62.00;;;;;;;-2.32;77.80;98301.00;109678;1264;24095;31
2023/04/05 06:12:08;;;;;;;78.30;65.20;;;;;;;-2.29;77.74;98301.86;109727;1264;22278;31
2023/04/05 06:14:37;;;;;;;86.80;71.10;;;;;;;-2.23;77.70;98306.71;109477;1264;22262;-86
2023/04/05 06:17:04;;;;;;;82.90;70.10;;;;;;;-2.14;77.65;98302.27;109733;1264;23068;-86
2023/04/05 06:19:42;;;;;;;84.60;74.30;;;;;;;-2.00;77.90;98303.96;109892;1264;22333;31
2023/04/05 06:22:10;;;;;;;92.90;76.50;;;;;;;-1.82;77.74;98304.69;109540;1264;21987;-93
2023/04/05 06:24:38;;;;;;;86.20;76.70;;;;;;;-1.68;77.56;98301.94;109968;1288;22688;-90
2023/04/05 06:27:13;;;;;;;89.70;76.00;;;;;;;-1.60;77.10;98301.95;109949;1260;22686;31
2023/04/05 06:29:41;;;;;;;;;;;;;;;-1.51;77.22;98304.30;109799;1292;22413;-87
2023/04/05 06:32:09;;;;;;;118.80;73.70;;;;;;;-1.52;76.85;98305.25;109795;1291;22229;-92
2023/04/05 06:34:37;;;;;;;87.40;70.60;;;;;;;-1.53;76.51;98303.10;109721;1291;22166;-91
2023/04/05 06:37:06;;;;;;;88.00;71.30;;;;;;;-1.56;76.33;98304.81;109808;1292;22300;-87
2023/04/05 06:39:34;;;;;;;126.50;82.60;;;;;;;-1.54;76.65;98300.87;109818;1292;22147;-90
2023/04/05 06:42:02;;;;;;;147.50;94.30;;;;;;;-1.50;76.62;98302.23;109744;1291;22180;-91
2023/04/05 06:44:32;;;;;;;105.40;78.30;;;;;;;-1.44;76.19;98304.02;109802;1292;22073;-88
2023/04/05 06:47:00;;;;;;;121.50;85.00;;;;;;;-1.44;75.59;98305.98;109649;1291;22185;-90
2023/04/05 06:49:28;;;;;;;108.50;80.80;;;;;;;-1.48;75.69;98301.73;109648;1292;22240;-92
2023/04/05 06:51:56;;;;;;;83.30;71.90;;;;;;;-1.44;75.59;98304.89;109720;1292;23335;-88
2023/04/05 06:54:32;;;;;;;102.60;79.80;;;;;;;-1.39;75.40;98305.95;109736;1267;22534;31
2023/04/05 06:57:18;;;;;;;86.90;71.60;;;;;;;-1.26;75.67;98307.55;109472;1261;24423;31
2023/04/05 06:59:46;;;;;;;80.90;72.40;;;;;;;-1.17;75.58;98310.47;108809;1264;22297;-87
2023/04/05 07:02:14;;;;;;;75.70;66.10;;;;;;;-1.09;75.35;98310.88;109828;1264;23023;-88
2023/04/05 07:04:43;;;;;;;73.30;65.60;;;;;;;-1.01;75.40;98307.72;109911;1289;22660;-87
2023/04/05 07:07:11;;;;;;;79.60;63.80;;;;;;;-0.88;75.17;98309.09;109776;1264;22233;-87
2023/04/05 07:09:39;;;;;;;95.10;62.60;;;;;;;-0.78;75.24;98310.37;109749;1288;22200;-88
2023/04/05 07:15:27;;;;;;;93.00;61.90;;;;;;;-0.65;72.92;98311.20;87950;1270;22720;31
2023/04/05 07:24:30;;;;;;;63.70;56.40;;;;;;;-0.42;73.80;98309.37;87905;1267;22889;31
2023/04/05 07:27:04;;;;;;;64.50;57.70;;;;;;;-0.24;73.86;98308.75;109838;1263;22402;31
2023/04/05 07:29:41;;;;;;;64.50;55.40;;;;;;;-0.08;72.94;98310.48;99222;1264;22794;31
2023/04/05 07:32:16;;;;;;;60.80;52.90;;;;;;;-0.03;72.26;98305.00;109635;1267;23357;31
2023/04/05 07:44:31;;;;;;;70.30;57.00;;;;;;;0.23;71.46;98309.39;100323;1277;22303;31
2023/04/05 07:46:59;;;;;;;61.50;53.60;;;;;;;0.26;71.11;98311.65;109715;1289;22351;-92
2023/04/05 07:49:27;;;;;;;59.00;53.00;;;;;;;0.25;70.67;98309.83;109748;1290;22675;-91
2023/04/05 07:51:58;;;;;;;58.10;52.00;;;;;;;0.32;70.45;98311.30;109774;1264;22158;-91
2023/04/05 07:54:26;;;;;;;55.40;49.50;;;;;;;0.41;69.68;98308.59;109831;1267;22217;-91
2023/04/05 07:56:56;;;;;;;51.80;46.30;;;;;;;0.43;69.65;98310.66;109936;1284;22136;-90
2023/04/05 07:59:24;;;;;;;48.80;43.60;;;;;;;0.45;69.91;98307.75;109809;1261;22674;-90
2023/04/05 08:01:52;;;;;;;44.80;40.20;;;;;;;0.48;69.23;98306.42;109952;1288;22166;-92
2023/04/05 08:04:38;;;;;;;47.10;42.00;;;;;;;0.41;69.19;98314.15;109922;1259;22509;31
2023/04/05 08:07:06;;;;;;;46.90;41.80;;;;;;;0.38;70.14;98307.80;109292;1263;22203;-89
2023/04/05 08:09:52;;;;;;;52.70;44.40;;;;;;;0.39;70.27;98303.91;109788;1264;24066;31
2023/04/05 08:12:38;;;;;;;48.60;43.60;;;;;;;0.42;69.07;98306.23;107663;1264;22381;31
2023/04/05 08:15:06;;;;;;;44.90;40.50;;;;;;;0.39;68.90;98308.03;109826;1270;22289;-87
2023/04/05 08:17:35;;;;;;;46.30;41.70;;;;;;;0.41;69.10;98306.62;109846;1263;22209;-92
2023/04/05 08:20:03;;;;;;;47.10;42.60;;;;;;;0.48;68.45;98304.05;109924;1288;21977;-86
2023/04/05 08:22:33;;;;;;;49.80;44.90;;;;;;;0.59;69.15;98305.08;109961;1288;22227;-89
2023/04/05 08:25:01;;;;;;;50.30;45.20;;;;;;;0.80;68.87;98301.36;109945;1288;22211;-90
2023/04/05 08:27:29;;;;;;;45.60;40.90;;;;;;;1.02;69.69;98298.45;109956;1287;22157;-86
2023/04/05 08:30:04;;;;;;;49.80;44.20;;;;;;;1.15;66.82;98303.23;109900;1261;23853;-91
2023/04/05 08:32:34;;;;;;;49.90;44.80;;;;;;;1.12;68.05;98296.22;109823;1290;22227;-86
2023/04/05 08:35:09;;;;;;;43.20;38.90;;;;;;;1.30;67.05;98297.61;109796;1260;22524;31
2023/04/05 08:37:38;;;;;;;36.40;32.90;;;;;;;1.38;67.03;98299.14;109884;1263;22225;-92
2023/04/05 08:40:07;;;;;;;29.80;27.00;;;;;;;1.50;67.25;98294.09;109839;1264;22280;-89
2023/04/05 08:42:45;;;;;;;35.40;31.90;;;;;;;1.68;68.00;98290.11;109903;1289;21916;-88
2023/04/05 08:45:18;;;;;;;39.60;35.90;;;;;;;1.99;67.48;98286.89;109935;1289;22136;-88
2023/04/05 08:47:48;;;;;;;36.20;32.50;;;;;;;2.22;66.61;98285.88;109844;1289;22939;-88
2023/04/05 08:50:16;;;;;;;32.40;29.40;;;;;;;2.49;67.38;98280.09;109764;1289;23117;-88
2023/04/05 08:52:48;;;;;;;33.50;30.10;;;;;;;2.75;66.44;98282.92;109689;1289;22851;-91
2023/04/05 08:55:16;;;;;;;33.80;30.40;;;;;;;2.71;63.78;98285.55;109727;1289;22256;-90
2023/04/05 08:57:51;;;;;;;33.30;29.90;;;;;;;2.44;63.94;98284.78;109710;1289;22885;-92
2023/04/05 09:00:19;;;;;;;34.60;31.10;;;;;;;2.22;63.64;98283.98;109745;1289;22802;-90
2023/04/05 09:02:53;;;;;;;37.00;33.40;;;;;;;2.06;61.97;98284.39;109704;1289;22231;-89
2023/04/05 09:05:23;;;;;;;34.70;31.20;;;;;;;1.78;60.79;98284.85;109674;1286;23022;-88
2023/04/05 09:07:51;;;;;;;37.40;33.50;;;;;;;1.56;61.43;98288.02;109873;1289;22096;-87
2023/04/05 09:10:20;;;;;;;37.10;33.40;;;;;;;1.45;60.83;98289.00;109856;1289;22224;-86
2023/04/05 09:12:55;;;;;;;32.80;29.60;;;;;;;1.41;62.33;98286.13;109806;1264;22196;31
2023/04/05 09:15:29;;;;;;;25.40;22.90;;;;;;;1.65;62.61;98274.27;101327;1264;22267;-88
2023/04/05 09:17:57;;;;;;;25.50;22.70;;;;;;;2.08;63.45;98271.83;109317;1264;22811;-86
2023/04/05 09:20:25;;;;;;;26.60;23.70;;;;;;;2.43;62.97;98271.30;109956;1288;22130;-88
2023/04/05 09:22:55;;;;;;;27.50;24.70;;;;;;;2.62;60.34;98275.20;109913;1286;22691;-88
2023/04/05 09:25:38;;;;;;;29.50;26.60;;;;;;;2.50;58.94;98275.96;109773;1267;22960;-94
2023/04/05 09:28:07;;;;;;;28.10;25.30;;;;;;;2.31;58.49;98274.43;109762;1264;22260;-88
2023/04/05 09:30:45;;;;;;;27.00;24.20;;;;;;;2.19;59.48;98274.19;109798;1261;22439;31
2023/04/05 09:36:18;;;;;;;29.40;23.60;;;;;;;1.81;57.83;98269.52;109735;1289;22349;-89
2023/04/05 09:39:08;;;;;;;25.90;23.10;;;;;;;1.79;59.83;98266.04;109793;1289;22217;-89
2023/04/05 09:41:38;;;;;;;28.50;25.10;;;;;;;1.88;58.71;98265.73;109866;1289;22940;-87
2023/04/05 09:44:08;;;;;;;28.20;25.20;;;;;;;1.89;58.14;98265.25;109827;1288;22919;-90
2023/04/05 09:46:40;;;;;;;31.40;28.30;;;;;;;1.93;57.16;98266.58;109828;1289;22135;-91
2023/04/05 09:49:09;;;;;;;35.40;28.20;;;;;;;2.00;57.59;98266.05;109767;1287;22234;-92
2023/04/05 09:51:37;;;;;;;30.80;27.50;;;;;;;2.09;57.16;98264.09;109753;1289;22574;-90
2023/04/05 09:54:11;;;;;;;30.40;27.20;;;;;;;2.20;57.06;98261.50;109769;1289;22226;-89
2023/04/05 09:56:52;;;;;;;30.70;27.00;;;;;;;2.38;57.04;98259.84;109775;1289;22074;-92
2023/04/05 09:59:20;;;;;;;33.70;27.70;;;;;;;2.56;58.87;98251.60;109769;1289;22199;-92
2023/04/05 10:01:50;;;;;;;31.80;26.50;;;;;;;2.76;59.22;98248.88;109781;1289;22244;-92
2023/04/05 10:04:20;;;;;;;29.50;25.30;;;;;;;2.89;55.34;98249.48;109755;1288;22877;-92
2023/04/05 10:06:48;;;;;;;27.60;24.20;;;;;;;2.80;54.94;98253.14;109806;1288;22850;-91
2023/04/05 10:09:18;;;;;;;28.30;24.00;;;;;;;2.77;52.71;98256.35;109818;1288;22277;-88
2023/04/05 10:11:46;;;;;;;24.30;21.70;;;;;;;2.57;51.25;98259.02;109737;1288;22279;-90
2023/04/05 10:14:14;;;;;;;25.40;22.60;;;;;;;2.45;52.03;98253.85;109701;1288;22357;-92
2023/04/05 10:17:11;;;;;;;50.30;45.70;;;;;;;2.42;51.98;98255.44;109716;1288;23069;-87
2023/04/05 10:20:13;;;;;;;21.50;18.30;;;;;;;2.41;50.61;98255.54;109749;1288;22448;-89
2023/04/05 10:22:51;;;;;;;20.90;16.30;;;;;;;2.31;47.63;98258.04;109758;1288;22318;-83
2023/04/05 10:25:44;;;;;;;19.70;16.30;;;;;;;2.26;47.68;98255.94;109694;1288;22216;-88
2023/04/05 10:28:31;;;;;;;19.00;17.00;;;;;;;2.44;49.90;98247.55;109733;1288;22243;-86
2023/04/05 10:31:16;;;;;;;18.90;15.80;;;;;;;2.83;50.89;98241.48;109713;1288;22194;-89
2023/04/05 10:34:06;;;;;;;18.70;16.70;;;;;;;3.37;53.19;98238.47;109743;1288;22211;-88
2023/04/05 10:36:38;;;;;;;20.90;18.40;;;;;;;3.78;51.10;98232.45;109715;1288;22406;-87
2023/04/05 10:39:15;;;;;;;21.20;18.90;;;;;;;4.07;50.84;98236.02;109958;1288;21931;-86
2023/04/05 10:41:49;;;;;;;17.90;15.80;;;;;;;4.16;48.11;98237.23;109846;1288;22236;-91
2023/04/05 10:44:17;;;;;;;19.40;16.00;;;;;;;3.78;47.26;98233.14;109787;1288;22293;-89
2023/04/05 10:46:55;;;;;;;19.70;16.00;;;;;;;3.38;47.18;98234.70;109779;1285;22230;-90
2023/04/05 10:49:46;;;;;;;20.00;16.00;;;;;;;3.07;46.76;98229.48;109806;1288;22179;-88
2023/04/05 10:52:16;;;;;;;19.30;17.20;;;;;;;2.82;48.25;98228.11;109753;1288;23055;-86
2023/04/05 10:54:45;;;;;;;19.80;16.30;;;;;;;2.82;49.36;98229.88;109708;1288;22847;-87
2023/04/05 10:57:14;;;;;;;18.50;15.10;;;;;;;2.85;47.32;98228.91;109706;1288;22367;-87
2023/04/05 10:59:45;;;;;;;18.80;16.00;;;;;;;2.69;47.05;98231.02;109710;1288;22210;-86
2023/04/05 11:02:14;;;;;;;18.20;15.50;;;;;;;2.55;47.19;98232.86;109697;1288;22250;-87
2023/04/05 11:04:42;;;;;;;20.10;18.00;;;;;;;2.65;48.84;98228.35;109697;1288;22344;-86
2023/04/05 11:07:16;;;;;;;22.00;16.90;;;;;;;3.01;50.28;98226.14;109734;1288;22432;-85
2023/04/05 11:10:01;;;;;;;32.00;28.70;;;;;;;3.49;49.13;98223.89;109612;1288;22409;-88
2023/04/05 11:12:47;;;;;;;;;;;;;;;3.82;49.35;98218.10;109712;1288;22992;-86
2023/04/05 11:15:24;;;;;;;20.20;17.20;;;;;;;4.19;50.10;98217.77;109731;1288;22204;-88
2023/04/05 11:18:17;;;;;;;19.40;17.10;;;;;;;4.44;49.14;98217.08;109745;1288;22927;-86
2023/04/05 11:20:54;;;;;;;18.60;16.60;;;;;;;4.38;49.96;98218.62;109747;1288;22878;-90
2023/04/05 11:23:24;;;;;;;19.90;16.90;;;;;;;4.35;49.91;98218.36;109705;1288;22322;-89
2023/04/05 11:25:56;;;;;;;19.00;17.10;;;;;;;4.24;48.63;98219.57;109707;1288;22226;-88
2023/04/05 11:28:29;;;;;;;18.90;16.80;;;;;;;4.15;48.90;98224.54;109708;1288;22146;-90
2023/04/05 11:31:11;;;;;;;19.70;17.70;;;;;;;4.16;49.92;98226.02;109690;1288;22228;-87
2023/04/05 11:33:49;;;;;;;18.20;16.10;;;;;;;4.23;50.43;98224.69;109711;1288;23148;-91
2023/04/05 11:36:31;;;;;;;17.90;15.90;;;;;;;4.58;50.37;98225.11;109686;1288;22222;-91
2023/04/05 11:39:17;;;;;;;17.10;14.90;;;;;;;5.01;50.18;98221.14;109709;1288;22986;-91
2023/04/05 11:41:46;;;;;;;18.80;15.80;;;;;;;5.57;50.83;98213.26;109698;1288;22221;-88
2023/04/05 11:44:15;;;;;;;18.20;15.60;;;;;;;6.01;47.32;98214.64;109693;1288;22386;-90
2023/04/05 11:46:45;;;;;;;20.00;15.70;;;;;;;6.04;44.22;98214.97;109720;1288;23063;-91
2023/04/05 11:49:13;;;;;;;18.20;16.30;;;;;;;5.63;44.84;98218.79;109716;1288;22206;-90
2023/04/05 11:51:42;;;;;;;16.90;15.10;;;;;;;5.34;44.18;98223.89;109703;1288;22222;-89
2023/04/05 11:54:10;;;;;;;18.50;16.50;;;;;;;4.98;44.87;98224.91;109683;1288;22253;-89
2023/04/05 11:56:38;;;;;;;17.80;15.20;;;;;;;4.79;46.78;98222.39;109708;1274;22814;-89
2023/04/05 11:59:06;;;;;;;18.50;16.40;;;;;;;4.73;46.87;98220.62;109700;1288;22317;-88
2023/04/05 12:01:35;;;;;;;20.60;16.10;;;;;;;4.72;45.59;98221.67;109734;1288;22290;-89
2023/04/05 12:04:06;;;;;;;17.30;15.50;;;;;;;4.75;43.27;98221.07;109714;1288;22760;-86